Time;durP1;ratioP1;P1;durP2;ratioP2;P2;SDS_P1;SDS_P2;PMS_P1;PMS_P2;Temp;Humidity;BMP_temperature;BMP_pressure;BME280_temperature;BME280_humidity;BME280_pressure;Samples;Min_cycle;Max_cycle;Signal;HPM_P1;HPM_P2
2023/06/22 00:01:29;;;;;;;42.55;31.38;;;;;;;;;;5058831;28;20521;-85
2023/06/22 00:03:55;;;;;;;40.65;32.53;;;;;;;;;;5059814;28;20097;-83
2023/06/22 00:06:20;;;;;;;44.78;34.67;;;;;;;;;;5058119;28;20559;-86
2023/06/22 00:08:47;;;;;;;41.33;31.83;;;;;;;;;;5059356;28;20412;-82
2023/06/22 00:11:13;;;;;;;45.65;33.42;;;;;;;;;;5056559;28;20036;-86
2023/06/22 00:13:39;;;;;;;48.33;34.75;;;;;;;;;;5059041;28;20041;-82
2023/06/22 00:16:05;;;;;;;46.63;34.58;;;;;;;;;;5057000;28;20881;-83
2023/06/22 00:18:31;;;;;;;40.47;30.17;;;;;;;;;;5051898;28;20520;-85
2023/06/22 00:21:00;;;;;;;47.90;35.13;;;;;;;;;;5061087;28;20036;-86
2023/06/22 00:23:26;;;;;;;40.97;31.27;;;;;;;;;;5059190;28;20761;-81
2023/06/22 00:25:52;;;;;;;35.42;28.35;;;;;;;;;;5058353;28;20048;-88
2023/06/22 00:28:18;;;;;;;53.20;37.13;;;;;;;;;;5034969;28;20127;-86
2023/06/22 00:30:45;;;;;;;59.10;39.78;;;;;;;;;;5040608;28;20052;-86
2023/06/22 00:33:12;;;;;;;46.78;34.67;;;;;;;;;;5045380;28;20646;-82
2023/06/22 00:35:41;;;;;;;55.47;39.50;;;;;;;;;;5056674;28;20047;-84
2023/06/22 00:38:08;;;;;;;48.38;35.92;;;;;;;;;;5059494;28;20118;-84
2023/06/22 00:40:34;;;;;;;46.72;35.42;;;;;;;;;;5060917;28;20515;-85
2023/06/22 00:43:00;;;;;;;52.70;38.22;;;;;;;;;;5059728;28;20131;-84
2023/06/22 00:45:26;;;;;;;48.45;36.90;;;;;;;;;;5058547;28;20131;-88
2023/06/22 00:47:53;;;;;;;56.80;40.95;;;;;;;;;;5055688;28;20132;-82
2023/06/22 00:50:20;;;;;;;49.55;36.47;;;;;;;;;;5056284;28;20165;-84
2023/06/22 00:52:48;;;;;;;51.38;38.13;;;;;;;;;;5058268;28;20132;-83
2023/06/22 00:55:17;;;;;;;51.92;39.95;;;;;;;;;;5050218;28;20044;-89
2023/06/22 00:57:45;;;;;;;64.72;47.88;;;;;;;;;;5059676;28;20048;-84
2023/06/22 01:00:16;;;;;;;63.95;46.67;;;;;;;;;;5058447;28;20041;-84
2023/06/22 01:02:45;;;;;;;57.33;42.30;;;;;;;;;;5060877;28;20052;-83
2023/06/22 01:05:12;;;;;;;;;;;;;;;;;;5040902;28;20113;-86
2023/06/22 01:07:58;;;;;;;52.63;40.25;;;;;;;;;;5041427;28;19924;-88
2023/06/22 01:10:30;;;;;;;47.35;37.33;;;;;;;;;;5060338;28;20052;-85
2023/06/22 01:13:02;;;;;;;42.67;34.90;;;;;;;;;;5060310;28;20133;-85
2023/06/22 01:15:28;;;;;;;52.55;39.03;;;;;;;;;;5058995;28;20094;-88
2023/06/22 01:17:55;;;;;;;46.13;36.65;;;;;;;;;;5042985;28;20079;-86
2023/06/22 01:20:22;;;;;;;39.30;32.70;;;;;;;;;;5059694;28;20043;-84
2023/06/22 01:22:59;;;;;;;45.45;34.35;;;;;;;;;;5057696;28;20045;-87
2023/06/22 01:25:58;;;;;;;47.53;35.88;;;;;;;;;;5056458;28;20072;-88
2023/06/22 01:28:44;;;;;;;36.13;30.60;;;;;;;;;;5012446;28;20517;-88
2023/06/22 01:31:11;;;;;;;35.63;30.52;;;;;;;;;;5052739;28;20114;-86
2023/06/22 01:33:39;;;;;;;36.33;29.25;;;;;;;;;;5051768;28;20044;-82
2023/06/22 01:36:07;;;;;;;34.83;29.88;;;;;;;;;;5056536;28;20048;-86
2023/06/22 01:38:34;;;;;;;54.63;38.85;;;;;;;;;;5037902;28;20068;-82
2023/06/22 01:41:03;;;;;;;55.72;39.97;;;;;;;;;;5058881;28;20059;-84
2023/06/22 01:43:29;;;;;;;53.10;37.60;;;;;;;;;;5057444;28;20056;-87
2023/06/22 01:45:59;;;;;;;42.35;32.58;;;;;;;;;;5054237;28;20500;-88
2023/06/22 01:48:25;;;;;;;41.88;32.45;;;;;;;;;;5059158;28;20059;-86
2023/06/22 01:50:53;;;;;;;40.63;32.40;;;;;;;;;;5051170;28;20068;-83
2023/06/22 01:53:20;;;;;;;37.65;30.80;;;;;;;;;;5057153;28;20558;-89
2023/06/22 01:55:46;;;;;;;36.15;31.00;;;;;;;;;;5041169;28;20033;-82
2023/06/22 01:58:13;;;;;;;38.85;32.05;;;;;;;;;;5062610;28;20047;-87
2023/06/22 02:00:41;;;;;;;40.63;35.53;;;;;;;;;;5059735;28;20044;-82
2023/06/22 02:03:10;;;;;;;183.63;44.47;;;;;;;;;;5061278;28;20040;-83
2023/06/22 02:05:42;;;;;;;37.05;33.05;;;;;;;;;;5057199;28;20052;-84
2023/06/22 02:08:09;;;;;;;200.98;43.10;;;;;;;;;;5061785;28;20059;-85
2023/06/22 02:10:36;;;;;;;546.13;67.03;;;;;;;;;;5063193;28;20844;-87
2023/06/22 02:13:03;;;;;;;426.80;63.83;;;;;;;;;;5061269;28;20306;-82
2023/06/22 02:15:29;;;;;;;156.90;56.40;;;;;;;;;;5061898;28;20044;-81
2023/06/22 02:17:55;;;;;;;83.93;45.28;;;;;;;;;;5062248;28;20056;-83
2023/06/22 02:20:21;;;;;;;215.63;57.78;;;;;;;;;;5060833;28;20815;-81
2023/06/22 02:22:47;;;;;;;45.05;37.42;;;;;;;;;;5062128;28;20105;-81
2023/06/22 02:25:14;;;;;;;37.55;33.55;;;;;;;;;;5060738;28;20055;-86
2023/06/22 02:27:40;;;;;;;37.13;32.30;;;;;;;;;;5063213;28;20087;-85
2023/06/22 02:30:07;;;;;;;34.70;30.25;;;;;;;;;;5059434;28;20101;-86
2023/06/22 02:32:34;;;;;;;43.45;36.47;;;;;;;;;;5063916;28;20053;-81
2023/06/22 02:35:03;;;;;;;58.30;38.42;;;;;;;;;;5061122;28;21384;-82
2023/06/22 02:37:29;;;;;;;59.33;41.20;;;;;;;;;;5064552;28;20060;-81
2023/06/22 02:39:55;;;;;;;61.67;44.40;;;;;;;;;;5059664;28;20539;-83
2023/06/22 02:42:21;;;;;;;34.65;31.17;;;;;;;;;;5062848;28;20098;-86
2023/06/22 02:44:47;;;;;;;45.22;38.35;;;;;;;;;;5060358;28;20504;-84
2023/06/22 02:47:13;;;;;;;33.47;30.08;;;;;;;;;;5061203;28;20093;-87
2023/06/22 02:49:39;;;;;;;26.63;24.00;;;;;;;;;;5060432;28;20450;-87
2023/06/22 02:52:05;;;;;;;36.40;32.70;;;;;;;;;;5077322;28;20041;-84
2023/06/22 02:54:33;;;;;;;40.20;35.70;;;;;;;;;;5060061;28;20086;-89
2023/06/22 02:57:02;;;;;;;44.58;38.05;;;;;;;;;;5061125;28;20122;-84
2023/06/22 02:59:28;;;;;;;36.60;32.88;;;;;;;;;;5061743;28;20048;-84
2023/06/22 03:01:55;;;;;;;40.67;35.53;;;;;;;;;;5059374;28;20043;-81
2023/06/22 03:04:21;;;;;;;45.45;39.15;;;;;;;;;;5062858;28;20049;-82
2023/06/22 03:06:50;;;;;;;52.78;42.78;;;;;;;;;;5060152;28;20102;-86
2023/06/22 03:09:17;;;;;;;66.80;49.35;;;;;;;;;;5060823;28;20500;-82
2023/06/22 03:11:43;;;;;;;61.13;47.22;;;;;;;;;;5059375;28;20049;-85
2023/06/22 03:14:09;;;;;;;64.03;47.80;;;;;;;;;;5060928;28;20148;-81
2023/06/22 03:16:35;;;;;;;62.60;47.42;;;;;;;;;;5060352;28;20478;-82
2023/06/22 03:19:01;;;;;;;61.95;47.42;;;;;;;;;;5063252;28;20055;-80
2023/06/22 03:21:28;;;;;;;55.10;43.20;;;;;;;;;;5061965;28;20044;-82
2023/06/22 03:23:54;;;;;;;61.75;45.65;;;;;;;;;;5060417;28;20767;-82
2023/06/22 03:26:20;;;;;;;60.65;44.85;;;;;;;;;;5058144;28;20055;-81
2023/06/22 03:28:47;;;;;;;52.70;42.28;;;;;;;;;;5058870;28;20056;-87
2023/06/22 03:31:13;;;;;;;57.63;43.83;;;;;;;;;;5061501;28;20080;-83
2023/06/22 03:33:39;;;;;;;62.42;44.70;;;;;;;;;;5061372;28;20699;-83
2023/06/22 03:36:05;;;;;;;64.32;43.80;;;;;;;;;;5058345;28;20044;-84
2023/06/22 03:38:31;;;;;;;48.13;38.50;;;;;;;;;;5060084;28;20040;-82
2023/06/22 03:40:57;;;;;;;47.42;38.53;;;;;;;;;;5060206;28;20040;-82
2023/06/22 03:43:23;;;;;;;53.30;37.70;;;;;;;;;;5061164;28;20056;-81
2023/06/22 03:45:49;;;;;;;63.10;39.30;;;;;;;;;;5041461;28;20580;-81
2023/06/22 03:48:15;;;;;;;88.00;41.72;;;;;;;;;;5039718;28;20155;-83
2023/06/22 03:50:43;;;;;;;96.63;43.58;;;;;;;;;;5057811;28;20390;-86
2023/06/22 03:53:10;;;;;;;51.33;39.65;;;;;;;;;;5056709;28;20036;-81
2023/06/22 03:55:36;;;;;;;84.93;47.20;;;;;;;;;;5053962;28;20128;-81
2023/06/22 03:58:05;;;;;;;97.82;46.95;;;;;;;;;;5052819;28;20051;-86
2023/06/22 04:00:31;;;;;;;122.97;50.88;;;;;;;;;;5052043;28;20169;-84
2023/06/22 04:02:57;;;;;;;128.43;60.50;;;;;;;;;;5057077;28;20055;-80
2023/06/22 04:05:24;;;;;;;51.15;40.95;;;;;;;;;;5062522;28;20040;-81
2023/06/22 04:07:50;;;;;;;43.30;37.55;;;;;;;;;;5053026;28;20409;-81
2023/06/22 04:10:16;;;;;;;41.75;34.78;;;;;;;;;;5056165;28;20043;-82
2023/06/22 04:12:42;;;;;;;36.92;32.67;;;;;;;;;;5057245;28;20040;-82
2023/06/22 04:15:08;;;;;;;41.58;35.53;;;;;;;;;;5060469;28;20102;-84
2023/06/22 04:17:34;;;;;;;36.33;32.35;;;;;;;;;;5058372;28;20041;-87
2023/06/22 04:20:00;;;;;;;52.25;41.55;;;;;;;;;;5061272;28;20121;-84
2023/06/22 04:22:26;;;;;;;63.30;46.45;;;;;;;;;;5060005;28;20049;-88
2023/06/22 04:24:52;;;;;;;47.00;38.30;;;;;;;;;;5061399;28;20051;-84
2023/06/22 04:27:19;;;;;;;53.25;41.85;;;;;;;;;;5059489;28;20059;-87
2023/06/22 04:29:48;;;;;;;60.95;44.97;;;;;;;;;;5057620;28;20083;-87
2023/06/22 04:32:15;;;;;;;52.55;40.75;;;;;;;;;;5057673;28;20102;-83
2023/06/22 04:34:41;;;;;;;55.17;43.30;;;;;;;;;;5040451;28;20129;-86
2023/06/22 04:37:07;;;;;;;68.15;49.30;;;;;;;;;;5059089;28;20482;-87
2023/06/22 04:39:33;;;;;;;70.68;50.17;;;;;;;;;;5056455;28;20037;-85
2023/06/22 04:42:02;;;;;;;69.15;50.92;;;;;;;;;;5059594;28;20040;-85
2023/06/22 04:44:28;;;;;;;70.15;51.63;;;;;;;;;;5061140;28;20114;-86
2023/06/22 04:46:59;;;;;;;63.33;47.85;;;;;;;;;;5060377;28;20028;-88
2023/06/22 04:49:32;;;;;;;64.10;48.13;;;;;;;;;;5060274;28;20623;-87
2023/06/22 04:51:58;;;;;;;58.95;45.38;;;;;;;;;;5055423;28;20123;-87
2023/06/22 04:54:24;;;;;;;60.22;45.17;;;;;;;;;;5059303;28;20538;-88
2023/06/22 04:56:56;;;;;;;52.17;41.55;;;;;;;;;;5056662;28;20051;-87
2023/06/22 04:59:22;;;;;;;59.33;46.00;;;;;;;;;;5056845;28;20656;-87
2023/06/22 05:01:48;;;;;;;50.97;40.85;;;;;;;;;;5056769;28;20036;-86
2023/06/22 05:04:17;;;;;;;55.17;42.85;;;;;;;;;;5060859;28;20114;-88
2023/06/22 05:06:43;;;;;;;53.65;42.65;;;;;;;;;;5061546;28;20078;-86
2023/06/22 05:09:09;;;;;;;52.15;40.95;;;;;;;;;;5059347;28;20048;-87
2023/06/22 05:11:35;;;;;;;57.60;43.63;;;;;;;;;;5060071;28;20123;-87
2023/06/22 05:14:01;;;;;;;58.20;43.47;;;;;;;;;;5037926;28;20071;-86
2023/06/22 05:16:27;;;;;;;59.30;45.30;;;;;;;;;;5056668;28;20044;-87
2023/06/22 05:18:54;;;;;;;57.67;44.00;;;;;;;;;;5059733;28;20688;-84
2023/06/22 05:21:24;;;;;;;53.67;40.95;;;;;;;;;;5057024;28;20510;-83
2023/06/22 05:23:51;;;;;;;49.65;40.08;;;;;;;;;;5053386;28;20442;-83
2023/06/22 05:26:17;;;;;;;53.08;42.50;;;;;;;;;;5056651;28;20043;-87
2023/06/22 05:28:45;;;;;;;60.45;46.10;;;;;;;;;;5051912;28;20492;-87
2023/06/22 05:31:12;;;;;;;59.67;44.72;;;;;;;;;;5058595;28;20056;-83
2023/06/22 05:33:38;;;;;;;67.05;48.63;;;;;;;;;;5060186;28;20052;-78
2023/06/22 05:36:04;;;;;;;58.45;44.75;;;;;;;;;;5057596;28;20033;-80
2023/06/22 05:38:30;;;;;;;56.60;43.28;;;;;;;;;;5060016;28;20392;-79
2023/06/22 05:40:56;;;;;;;63.75;46.85;;;;;;;;;;5059977;28;20049;-79
2023/06/22 05:43:23;;;;;;;61.75;46.08;;;;;;;;;;5061408;28;20063;-77
2023/06/22 05:45:49;;;;;;;55.50;42.45;;;;;;;;;;5060508;28;20102;-91
2023/06/22 05:48:15;;;;;;;55.95;41.20;;;;;;;;;;5061165;28;20052;-79
2023/06/22 05:50:40;;;;;;;55.28;41.50;;;;;;;;;;5062007;28;20072;-80
2023/06/22 05:53:06;;;;;;;51.38;37.63;;;;;;;;;;5062253;28;20496;-91
2023/06/22 05:55:33;;;;;;;52.35;38.83;;;;;;;;;;5067033;28;20036;-78
2023/06/22 05:58:00;;;;;;;50.83;38.92;;;;;;;;;;5061187;28;20048;-92
2023/06/22 06:00:26;;;;;;;48.72;38.38;;;;;;;;;;5059173;28;20044;-88
2023/06/22 06:02:52;;;;;;;58.13;39.50;;;;;;;;;;5036926;28;20048;-77
2023/06/22 06:05:19;;;;;;;50.65;39.92;;;;;;;;;;5059298;28;20658;-80
2023/06/22 06:07:45;;;;;;;52.05;39.65;;;;;;;;;;5060526;28;20050;-93
2023/06/22 06:10:11;;;;;;;52.40;39.65;;;;;;;;;;5062477;28;20053;-80
2023/06/22 06:12:37;;;;;;;50.83;37.85;;;;;;;;;;5062407;28;20073;-79
2023/06/22 06:15:04;;;;;;;46.25;36.35;;;;;;;;;;5057259;28;20629;-92
2023/06/22 06:17:30;;;;;;;34.33;26.58;;;;;;;;;;5063967;28;20044;-94
2023/06/22 06:19:57;;;;;;;31.58;25.00;;;;;;;;;;5060985;28;20032;-86
2023/06/22 06:22:23;;;;;;;29.95;25.48;;;;;;;;;;5063541;28;20048;-89
2023/06/22 06:24:49;;;;;;;24.77;21.98;;;;;;;;;;5060732;28;20036;-81
2023/06/22 06:27:18;;;;;;;23.88;21.23;;;;;;;;;;5060924;28;20076;-93
2023/06/22 06:29:45;;;;;;;;;;;;;;;;;;5063816;28;20044;-93
2023/06/22 06:32:12;;;;;;;26.02;22.33;;;;;;;;;;5069919;28;19955;-94
2023/06/22 06:34:38;;;;;;;24.95;21.58;;;;;;;;;;5050428;28;20069;-84
2023/06/22 06:37:04;;;;;;;23.88;20.95;;;;;;;;;;5055993;28;20041;-77
2023/06/22 06:39:30;;;;;;;24.40;19.45;;;;;;;;;;5052920;28;20053;-83
2023/06/22 06:41:56;;;;;;;20.95;18.25;;;;;;;;;;5061390;28;20536;-78
2023/06/22 06:44:22;;;;;;;20.45;17.42;;;;;;;;;;5063576;28;20051;-84
2023/06/22 06:46:48;;;;;;;18.35;15.35;;;;;;;;;;5059049;28;20126;-84
2023/06/22 06:49:14;;;;;;;17.20;14.88;;;;;;;;;;5061067;28;20135;-84
2023/06/22 06:51:42;;;;;;;20.60;15.45;;;;;;;;;;5059834;28;20120;-83
2023/06/22 06:54:08;;;;;;;20.60;14.70;;;;;;;;;;5055767;28;20032;-79
2023/06/22 06:56:34;;;;;;;17.02;14.63;;;;;;;;;;5044797;28;20067;-84
2023/06/22 06:59:00;;;;;;;16.08;13.98;;;;;;;;;;5056344;28;20063;-78
2023/06/22 07:01:26;;;;;;;14.70;11.85;;;;;;;;;;5057357;28;20492;-78
2023/06/22 07:03:53;;;;;;;15.85;10.82;;;;;;;;;;5059498;28;20063;-81
2023/06/22 07:06:19;;;;;;;13.52;11.68;;;;;;;;;;5060961;28;20051;-84
2023/06/22 07:08:45;;;;;;;14.07;11.48;;;;;;;;;;5059886;28;20048;-81
2023/06/22 07:11:11;;;;;;;14.30;10.73;;;;;;;;;;5059534;28;20053;-77
2023/06/22 07:13:38;;;;;;;13.32;10.93;;;;;;;;;;5059306;28;20048;-85
2023/06/22 07:16:04;;;;;;;14.05;11.45;;;;;;;;;;5058993;28;20114;-79
2023/06/22 07:18:30;;;;;;;10.85;9.70;;;;;;;;;;5060238;28;20044;-81
2023/06/22 07:20:56;;;;;;;11.27;9.73;;;;;;;;;;5055691;28;20044;-81
2023/06/22 07:23:22;;;;;;;11.18;8.75;;;;;;;;;;5056629;28;20045;-81
2023/06/22 07:25:49;;;;;;;8.90;7.88;;;;;;;;;;5060371;28;20045;-77
2023/06/22 07:28:15;;;;;;;13.52;8.55;;;;;;;;;;5057504;28;20049;-81
2023/06/22 07:30:41;;;;;;;9.25;7.57;;;;;;;;;;5051469;28;20127;-86
2023/06/22 07:33:08;;;;;;;10.40;8.30;;;;;;;;;;5061012;28;20530;-79
2023/06/22 07:35:34;;;;;;;11.52;6.43;;;;;;;;;;5058845;28;20515;-83
2023/06/22 07:38:00;;;;;;;13.02;6.75;;;;;;;;;;5058666;28;20082;-78
2023/06/22 07:40:26;;;;;;;7.75;5.82;;;;;;;;;;5058763;28;20049;-85
2023/06/22 07:42:53;;;;;;;7.50;5.88;;;;;;;;;;5059113;28;20044;-88
2023/06/22 07:45:19;;;;;;;9.73;6.90;;;;;;;;;;5058663;28;20041;-80
2023/06/22 07:47:45;;;;;;;8.65;5.53;;;;;;;;;;5057952;28;20051;-77
2023/06/22 07:50:11;;;;;;;7.10;5.75;;;;;;;;;;5059605;28;20044;-81
2023/06/22 07:52:37;;;;;;;8.02;5.82;;;;;;;;;;5059540;28;20097;-84
2023/06/22 07:55:04;;;;;;;6.35;5.03;;;;;;;;;;5057224;28;20091;-84
2023/06/22 07:57:33;;;;;;;12.10;5.97;;;;;;;;;;5060232;28;20059;-89
2023/06/22 08:00:00;;;;;;;13.57;6.38;;;;;;;;;;5058218;28;20527;-82
2023/06/22 08:02:26;;;;;;;7.35;5.82;;;;;;;;;;5062707;28;20044;-85
2023/06/22 08:04:52;;;;;;;8.80;5.50;;;;;;;;;;5063893;28;20053;-93
2023/06/22 08:07:19;;;;;;;7.72;5.70;;;;;;;;;;5055468;28;20528;-82
2023/06/22 08:09:49;;;;;;;8.00;5.57;;;;;;;;;;5062892;28;20060;-86
2023/06/22 08:12:16;;;;;;;9.88;5.80;;;;;;;;;;5058137;28;20048;-83
2023/06/22 08:14:46;;;;;;;9.18;7.10;;;;;;;;;;5062976;28;20044;-93
2023/06/22 08:17:12;;;;;;;8.82;6.65;;;;;;;;;;5058049;28;20105;-87
2023/06/22 08:19:38;;;;;;;9.95;6.85;;;;;;;;;;5061122;28;20134;-93
2023/06/22 08:22:04;;;;;;;7.82;6.75;;;;;;;;;;5060302;28;20044;-81
2023/06/22 08:24:30;;;;;;;10.20;6.45;;;;;;;;;;5059663;28;20079;-74
2023/06/22 08:26:56;;;;;;;10.55;7.78;;;;;;;;;;5059547;28;20076;-84
2023/06/22 08:29:22;;;;;;;11.13;8.23;;;;;;;;;;5033574;28;20162;-80
2023/06/22 08:31:48;;;;;;;9.98;7.85;;;;;;;;;;5059167;28;20072;-90
2023/06/22 08:34:14;;;;;;;12.18;7.85;;;;;;;;;;5058158;28;20412;-81
2023/06/22 08:36:44;;;;;;;12.13;7.32;;;;;;;;;;5059959;28;20107;-88
2023/06/22 08:39:11;;;;;;;12.68;7.60;;;;;;;;;;5055207;28;20121;-83
2023/06/22 08:41:37;;;;;;;13.10;8.43;;;;;;;;;;5061095;28;20036;-89
2023/06/22 08:44:03;;;;;;;10.98;7.45;;;;;;;;;;5059459;28;20071;-81
2023/06/22 08:46:33;;;;;;;12.70;7.63;;;;;;;;;;5042605;28;20049;-85
2023/06/22 08:48:59;;;;;;;11.13;7.93;;;;;;;;;;5059538;28;20155;-77
2023/06/22 08:51:25;;;;;;;11.60;8.30;;;;;;;;;;5053185;28;20077;-76
2023/06/22 08:53:51;;;;;;;10.57;7.70;;;;;;;;;;5061442;28;20087;-84
2023/06/22 08:56:18;;;;;;;12.85;8.68;;;;;;;;;;5056798;28;20048;-77
2023/06/22 08:58:44;;;;;;;12.35;8.85;;;;;;;;;;5060481;28;20063;-81
2023/06/22 09:01:10;;;;;;;14.90;9.45;;;;;;;;;;5056821;28;20048;-76
2023/06/22 09:03:37;;;;;;;11.13;8.63;;;;;;;;;;5042852;28;20048;-89
2023/06/22 09:06:03;;;;;;;11.90;8.73;;;;;;;;;;5060279;28;20054;-80
2023/06/22 09:08:29;;;;;;;10.70;8.32;;;;;;;;;;5056480;28;20037;-78
2023/06/22 09:10:55;;;;;;;10.82;8.63;;;;;;;;;;5059083;28;20110;-81
2023/06/22 09:13:22;;;;;;;12.40;7.82;;;;;;;;;;5057348;28;20056;-83
2023/06/22 09:15:48;;;;;;;10.63;7.53;;;;;;;;;;5059223;28;20102;-87
2023/06/22 09:18:14;;;;;;;13.55;7.45;;;;;;;;;;5056378;28;20919;-90
2023/06/22 09:20:40;;;;;;;11.35;6.63;;;;;;;;;;5058698;28;20051;-89
2023/06/22 09:23:06;;;;;;;12.80;6.65;;;;;;;;;;5056936;28;20044;-91
2023/06/22 09:25:32;;;;;;;9.25;6.97;;;;;;;;;;5058172;28;20044;-90
2023/06/22 09:27:58;;;;;;;9.63;6.63;;;;;;;;;;5059938;28;20488;-91
2023/06/22 09:30:24;;;;;;;12.43;7.20;;;;;;;;;;5056990;28;20084;-92
2023/06/22 09:32:50;;;;;;;12.55;7.45;;;;;;;;;;5059445;28;20411;-86
2023/06/22 09:35:16;;;;;;;13.27;7.30;;;;;;;;;;5055419;28;20127;-91
2023/06/22 09:37:42;;;;;;;9.02;6.80;;;;;;;;;;5058980;28;20040;-90
2023/06/22 09:40:10;;;;;;;11.43;6.97;;;;;;;;;;5055245;28;20049;-89
2023/06/22 09:42:36;;;;;;;10.95;8.20;;;;;;;;;;5044082;28;20122;-91
2023/06/22 09:45:02;;;;;;;10.52;7.00;;;;;;;;;;5039517;28;20036;-93
2023/06/22 09:47:28;;;;;;;9.38;6.03;;;;;;;;;;5060330;28;20044;-89
2023/06/22 09:49:55;;;;;;;11.43;6.20;;;;;;;;;;5058076;28;20079;-90
2023/06/22 09:52:21;;;;;;;17.23;6.30;;;;;;;;;;5056756;28;20049;-88
2023/06/22 09:54:47;;;;;;;12.35;6.35;;;;;;;;;;5059853;28;20127;-90
2023/06/22 09:57:13;;;;;;;10.13;6.82;;;;;;;;;;5056087;28;20052;-78
2023/06/22 09:59:39;;;;;;;6.65;5.10;;;;;;;;;;5059920;28;20048;-86
2023/06/22 10:02:07;;;;;;;9.98;5.88;;;;;;;;;;5053894;28;20044;-88
2023/06/22 10:04:32;;;;;;;7.70;5.57;;;;;;;;;;5057701;28;20052;-82
2023/06/22 10:06:58;;;;;;;8.88;5.50;;;;;;;;;;5052649;28;20044;-86
2023/06/22 10:09:24;;;;;;;8.18;5.65;;;;;;;;;;5058388;28;20047;-90
2023/06/22 10:11:50;;;;;;;7.22;5.03;;;;;;;;;;5057266;28;20559;-87
2023/06/22 10:14:16;;;;;;;10.63;5.88;;;;;;;;;;5057140;28;20060;-90
2023/06/22 10:16:42;;;;;;;8.80;6.10;;;;;;;;;;5060682;28;20045;-88
2023/06/22 10:19:09;;;;;;;8.57;5.68;;;;;;;;;;5058718;28;20036;-80
2023/06/22 10:21:34;;;;;;;10.13;6.38;;;;;;;;;;5064159;28;20044;-87
2023/06/22 10:24:05;;;;;;;13.73;5.90;;;;;;;;;;5056939;28;20047;-88
2023/06/22 10:26:32;;;;;;;9.63;5.80;;;;;;;;;;5058755;28;20055;-91
2023/06/22 10:28:57;;;;;;;9.50;5.57;;;;;;;;;;5054609;28;20109;-87
2023/06/22 10:31:23;;;;;;;8.48;5.80;;;;;;;;;;5053265;28;20045;-91
2023/06/22 10:33:49;;;;;;;11.27;5.93;;;;;;;;;;5054278;28;20083;-84
2023/06/22 10:36:15;;;;;;;11.30;5.65;;;;;;;;;;5053056;28;20049;-87
2023/06/22 10:38:41;;;;;;;9.57;4.88;;;;;;;;;;5057784;28;20040;-87
2023/06/22 10:41:07;;;;;;;7.07;5.00;;;;;;;;;;5057960;28;20117;-89
2023/06/22 10:43:33;;;;;;;8.90;6.00;;;;;;;;;;5056690;28;20087;-88
2023/06/22 10:45:59;;;;;;;10.57;6.25;;;;;;;;;;5054601;28;20590;-81
2023/06/22 10:48:25;;;;;;;7.38;5.05;;;;;;;;;;5058772;28;20059;-80
2023/06/22 10:50:53;;;;;;;6.15;4.28;;;;;;;;;;5053925;28;20041;-90
2023/06/22 10:53:19;;;;;;;9.13;4.80;;;;;;;;;;5052841;28;20151;-92
2023/06/22 10:55:45;;;;;;;7.68;5.30;;;;;;;;;;5035972;28;20044;-90
2023/06/22 10:58:10;;;;;;;9.18;4.85;;;;;;;;;;5055468;28;20029;-88
2023/06/22 11:00:36;;;;;;;7.53;5.18;;;;;;;;;;5054321;28;20403;-77
2023/06/22 11:03:02;;;;;;;7.45;4.82;;;;;;;;;;5053892;28;20044;-83
2023/06/22 11:05:28;;;;;;;8.30;4.60;;;;;;;;;;5053965;28;20037;-84
2023/06/22 11:07:54;;;;;;;9.00;4.88;;;;;;;;;;5037752;28;20477;-82
2023/06/22 11:10:20;;;;;;;5.93;5.07;;;;;;;;;;5054791;28;20063;-79
2023/06/22 11:12:46;;;;;;;7.18;4.35;;;;;;;;;;5055459;28;20052;-77
2023/06/22 11:15:13;;;;;;;8.40;4.65;;;;;;;;;;5052035;28;20048;-90
2023/06/22 11:17:39;;;;;;;7.25;4.35;;;;;;;;;;5054823;28;20063;-77
2023/06/22 11:20:11;;;;;;;7.07;4.45;;;;;;;;;;5055479;28;20093;-78
2023/06/22 11:22:40;;;;;;;8.82;5.47;;;;;;;;;;5053499;28;20053;-75
2023/06/22 11:25:07;;;;;;;6.47;4.90;;;;;;;;;;5057432;28;20052;-86
2023/06/22 11:27:33;;;;;;;10.25;4.72;;;;;;;;;;5079791;28;20052;-85
2023/06/22 11:29:59;;;;;;;7.78;5.00;;;;;;;;;;5062819;28;20496;-82
2023/06/22 11:32:25;;;;;;;7.25;5.10;;;;;;;;;;5055088;28;20052;-82
2023/06/22 11:34:51;;;;;;;5.25;4.03;;;;;;;;;;5050012;28;20044;-77
2023/06/22 11:37:17;;;;;;;6.13;4.60;;;;;;;;;;5056225;28;20405;-73
2023/06/22 11:39:43;;;;;;;6.93;4.45;;;;;;;;;;5053246;28;20090;-80
2023/06/22 11:42:10;;;;;;;7.50;3.70;;;;;;;;;;5055199;28;20059;-75
2023/06/22 11:44:36;;;;;;;9.48;4.60;;;;;;;;;;5060851;28;20460;-74
2023/06/22 11:47:04;;;;;;;7.13;4.45;;;;;;;;;;5060677;28;20530;-80
2023/06/22 11:49:30;;;;;;;7.63;4.22;;;;;;;;;;5058970;28;20044;-74
2023/06/22 11:51:56;;;;;;;11.40;4.63;;;;;;;;;;5058336;28;20076;-72
2023/06/22 11:54:22;;;;;;;7.00;4.45;;;;;;;;;;5038221;28;20506;-74
2023/06/22 11:56:48;;;;;;;10.23;4.88;;;;;;;;;;5059141;28;20045;-73
2023/06/22 11:59:14;;;;;;;10.75;4.40;;;;;;;;;;5060171;28;20056;-73
2023/06/22 12:01:40;;;;;;;4.40;3.92;;;;;;;;;;5058255;28;20044;-75
2023/06/22 12:04:06;;;;;;;6.35;4.55;;;;;;;;;;5057595;28;20150;-77
2023/06/22 12:06:33;;;;;;;7.15;4.78;;;;;;;;;;5067032;28;20053;-80
2023/06/22 12:08:59;;;;;;;10.60;5.05;;;;;;;;;;5041717;28;20115;-76
2023/06/22 12:11:25;;;;;;;7.63;5.35;;;;;;;;;;5059325;28;20526;-88
2023/06/22 12:13:51;;;;;;;8.20;4.90;;;;;;;;;;5064564;28;20041;-85
2023/06/22 12:16:21;;;;;;;9.23;4.53;;;;;;;;;;5058345;28;20058;-82
2023/06/22 12:18:50;;;;;;;7.75;4.53;;;;;;;;;;5042644;28;20053;-81
2023/06/22 12:21:16;;;;;;;6.85;4.70;;;;;;;;;;5058378;28;20067;-91
2023/06/22 12:23:43;;;;;;;6.03;4.05;;;;;;;;;;5045351;28;20127;-85
2023/06/22 12:26:09;;;;;;;8.90;5.95;;;;;;;;;;5042316;28;20084;-86
2023/06/22 12:28:35;;;;;;;9.80;6.60;;;;;;;;;;5060587;28;20586;-84
2023/06/22 12:31:01;;;;;;;8.95;6.20;;;;;;;;;;5057023;28;20040;-85
2023/06/22 12:33:30;;;;;;;9.40;5.75;;;;;;;;;;5058648;28;20443;-86
2023/06/22 12:35:56;;;;;;;9.90;5.57;;;;;;;;;;5074365;28;20060;-87
2023/06/22 12:38:24;;;;;;;7.72;5.95;;;;;;;;;;5058064;28;20094;-92
2023/06/22 12:40:50;;;;;;;;;;;;;;;;;;5042835;28;20059;-94
2023/06/22 12:43:16;;;;;;;9.13;6.13;;;;;;;;;;5042111;28;19924;-81
2023/06/22 12:45:42;;;;;;;10.23;6.07;;;;;;;;;;5061026;28;20068;-89
2023/06/22 12:48:08;;;;;;;7.57;5.45;;;;;;;;;;5054650;28;20041;-92
2023/06/22 12:50:35;;;;;;;8.77;5.93;;;;;;;;;;5042299;28;20048;-88
2023/06/22 12:53:03;;;;;;;7.80;5.43;;;;;;;;;;5033913;28;20396;-85
2023/06/22 12:55:31;;;;;;;;;;;;;;;;;;5052955;28;20063;-88
2023/06/22 12:57:57;;;;;;;7.50;5.60;;;;;;;;;;5039904;28;20125;-87
2023/06/22 13:00:26;;;;;;;8.48;6.18;;;;;;;;;;5055468;28;20048;-89
2023/06/22 13:02:52;;;;;;;7.88;5.43;;;;;;;;;;5056136;28;20048;-89
2023/06/22 13:05:18;;;;;;;8.95;5.72;;;;;;;;;;5036374;28;20044;-85
2023/06/22 13:07:46;;;;;;;11.15;5.93;;;;;;;;;;5054253;28;20056;-92
2023/06/22 13:10:15;;;;;;;10.20;5.88;;;;;;;;;;5052899;28;20055;-92
2023/06/22 13:12:41;;;;;;;7.70;5.78;;;;;;;;;;5051496;28;20119;-89
2023/06/22 13:15:10;;;;;;;6.78;5.55;;;;;;;;;;5046764;28;20079;-91
2023/06/22 13:17:36;;;;;;;9.73;5.80;;;;;;;;;;5052174;28;20232;-91
2023/06/22 13:20:15;;;;;;;7.60;5.20;;;;;;;;;;5051996;28;20277;-92
2023/06/22 13:22:54;;;;;;;7.03;5.53;;;;;;;;;;5053800;28;20071;-91
2023/06/22 13:25:22;;;;;;;6.43;5.32;;;;;;;;;;5048048;28;20419;-89
2023/06/22 13:27:49;;;;;;;6.28;4.85;;;;;;;;;;5036785;28;20400;-87
2023/06/22 13:30:15;;;;;;;8.52;4.70;;;;;;;;;;5057191;28;20052;-89
2023/06/22 13:32:42;;;;;;;6.28;4.88;;;;;;;;;;5040335;28;20052;-91
2023/06/22 13:35:11;;;;;;;7.53;4.63;;;;;;;;;;5057160;28;20028;-88
2023/06/22 13:37:37;;;;;;;7.88;4.50;;;;;;;;;;5052757;28;20055;-85
2023/06/22 13:40:05;;;;;;;6.13;4.55;;;;;;;;;;5039611;28;20405;-88
2023/06/22 13:42:31;;;;;;;6.95;4.82;;;;;;;;;;5057582;28;20045;-80
2023/06/22 13:44:57;;;;;;;6.85;4.80;;;;;;;;;;5056749;28;20082;-90
2023/06/22 13:47:23;;;;;;;6.65;4.68;;;;;;;;;;5056836;28;20050;-90
2023/06/22 13:49:49;;;;;;;8.65;5.15;;;;;;;;;;5055954;28;20096;-82
2023/06/22 13:52:15;;;;;;;7.57;4.82;;;;;;;;;;5076732;28;20032;-86
2023/06/22 13:54:41;;;;;;;8.73;5.35;;;;;;;;;;5060528;28;20590;-75
2023/06/22 13:57:07;;;;;;;8.00;5.68;;;;;;;;;;5062773;28;20135;-75
2023/06/22 13:59:33;;;;;;;9.20;5.57;;;;;;;;;;5058127;28;20075;-79
2023/06/22 14:01:59;;;;;;;8.77;5.20;;;;;;;;;;5063436;28;20101;-81
2023/06/22 14:04:26;;;;;;;8.10;4.97;;;;;;;;;;5042936;28;20036;-74
2023/06/22 14:06:52;;;;;;;7.28;4.88;;;;;;;;;;5062297;28;20076;-75
2023/06/22 14:09:17;;;;;;;10.98;5.20;;;;;;;;;;5058054;28;20087;-74
2023/06/22 14:11:43;;;;;;;7.13;5.30;;;;;;;;;;5055420;28;20079;-74
2023/06/22 14:14:10;;;;;;;9.07;5.50;;;;;;;;;;5059715;28;20041;-73
2023/06/22 14:16:36;;;;;;;15.25;5.40;;;;;;;;;;5060427;28;20083;-74
2023/06/22 14:19:02;;;;;;;7.00;5.22;;;;;;;;;;5058018;28;20556;-74
2023/06/22 14:21:28;;;;;;;8.50;5.18;;;;;;;;;;5061945;28;20064;-75
2023/06/22 14:23:54;;;;;;;7.28;5.07;;;;;;;;;;5061176;28;20151;-74
2023/06/22 14:26:20;;;;;;;10.30;4.88;;;;;;;;;;5059946;28;20496;-76